sensor_id;sensor_type;location;lat;lon;timestamp;temperature;humidity
42989;DHT22;28622;43.716;20.668;2022-10-26T00:02:20;11.20;99.90
42989;DHT22;28622;43.716;20.668;2022-10-26T00:04:46;11.20;99.90
42989;DHT22;28622;43.716;20.668;2022-10-26T00:07:12;11.20;99.90
42989;DHT22;28622;43.716;20.668;2022-10-26T00:09:37;11.20;99.90
42989;DHT22;28622;43.716;20.668;2022-10-26T00:12:04;11.20;99.90
42989;DHT22;28622;43.716;20.668;2022-10-26T00:14:30;11.30;99.90
42989;DHT22;28622;43.716;20.668;2022-10-26T00:16:56;11.30;99.90
42989;DHT22;28622;43.716;20.668;2022-10-26T00:19:22;11.30;99.90
42989;DHT22;28622;43.716;20.668;2022-10-26T00:21:47;11.30;99.90
42989;DHT22;28622;43.716;20.668;2022-10-26T00:24:13;11.30;99.90
42989;DHT22;28622;43.716;20.668;2022-10-26T00:26:40;11.30;99.90
42989;DHT22;28622;43.716;20.668;2022-10-26T00:29:06;11.30;99.90
42989;DHT22;28622;43.716;20.668;2022-10-26T00:31:33;11.30;99.90
42989;DHT22;28622;43.716;20.668;2022-10-26T00:33:58;11.30;99.90
42989;DHT22;28622;43.716;20.668;2022-10-26T00:36:24;11.30;99.90
42989;DHT22;28622;43.716;20.668;2022-10-26T00:38:52;11.30;99.90
42989;DHT22;28622;43.716;20.668;2022-10-26T00:41:24;11.20;99.90
42989;DHT22;28622;43.716;20.668;2022-10-26T00:43:51;11.20;99.90
42989;DHT22;28622;43.716;20.668;2022-10-26T00:46:27;11.10;99.90
42989;DHT22;28622;43.716;20.668;2022-10-26T00:49:02;11.00;99.90
42989;DHT22;28622;43.716;20.668;2022-10-26T00:51:39;10.90;99.90
42989;DHT22;28622;43.716;20.668;2022-10-26T00:54:11;10.80;99.90
42989;DHT22;28622;43.716;20.668;2022-10-26T00:56:39;10.70;99.90
42989;DHT22;28622;43.716;20.668;2022-10-26T00:59:08;10.70;99.90
42989;DHT22;28622;43.716;20.668;2022-10-26T01:01:36;10.70;99.90
42989;DHT22;28622;43.716;20.668;2022-10-26T01:04:02;10.70;99.90
42989;DHT22;28622;43.716;20.668;2022-10-26T01:06:30;10.70;99.90
42989;DHT22;28622;43.716;20.668;2022-10-26T01:08:56;10.70;99.90
42989;DHT22;28622;43.716;20.668;2022-10-26T01:11:22;10.60;99.90
42989;DHT22;28622;43.716;20.668;2022-10-26T01:13:50;10.50;99.90
42989;DHT22;28622;43.716;20.668;2022-10-26T01:22:19;10.50;99.90
42989;DHT22;28622;43.716;20.668;2022-10-26T01:27:42;10.60;99.90
42989;DHT22;28622;43.716;20.668;2022-10-26T01:30:38;10.60;99.90
42989;DHT22;28622;43.716;20.668;2022-10-26T01:39:08;10.70;99.90
42989;DHT22;28622;43.716;20.668;2022-10-26T01:41:39;10.60;99.90
42989;DHT22;28622;43.716;20.668;2022-10-26T01:44:32;10.60;99.90
42989;DHT22;28622;43.716;20.668;2022-10-26T01:47:00;10.60;99.90
42989;DHT22;28622;43.716;20.668;2022-10-26T01:49:34;10.60;99.90
42989;DHT22;28622;43.716;20.668;2022-10-26T01:52:00;10.60;99.90
42989;DHT22;28622;43.716;20.668;2022-10-26T01:54:26;10.60;99.90
42989;DHT22;28622;43.716;20.668;2022-10-26T01:57:02;10.60;99.90
42989;DHT22;28622;43.716;20.668;2022-10-26T02:00:03;10.50;99.90
42989;DHT22;28622;43.716;20.668;2022-10-26T02:05:09;10.40;99.90
42989;DHT22;28622;43.716;20.668;2022-10-26T02:21:17;10.10;99.90
42989;DHT22;28622;43.716;20.668;2022-10-26T02:23:46;10.10;99.90
42989;DHT22;28622;43.716;20.668;2022-10-26T02:26:15;10.10;99.90
42989;DHT22;28622;43.716;20.668;2022-10-26T02:28:45;10.10;99.90
42989;DHT22;28622;43.716;20.668;2022-10-26T02:31:12;10.10;99.90
42989;DHT22;28622;43.716;20.668;2022-10-26T02:33:41;10.10;99.90
42989;DHT22;28622;43.716;20.668;2022-10-26T02:36:11;10.10;99.90
42989;DHT22;28622;43.716;20.668;2022-10-26T02:38:39;10.10;99.90
42989;DHT22;28622;43.716;20.668;2022-10-26T02:41:06;10.10;99.90
42989;DHT22;28622;43.716;20.668;2022-10-26T02:43:40;10.00;99.90
42989;DHT22;28622;43.716;20.668;2022-10-26T02:46:09;10.10;99.90
42989;DHT22;28622;43.716;20.668;2022-10-26T02:48:36;10.10;99.90
42989;DHT22;28622;43.716;20.668;2022-10-26T02:51:09;10.10;99.90
42989;DHT22;28622;43.716;20.668;2022-10-26T02:54:41;10.10;99.90
42989;DHT22;28622;43.716;20.668;2022-10-26T02:59:21;10.00;99.90
42989;DHT22;28622;43.716;20.668;2022-10-26T03:01:49;10.00;99.90
42989;DHT22;28622;43.716;20.668;2022-10-26T03:04:16;10.10;99.90
42989;DHT22;28622;43.716;20.668;2022-10-26T03:06:51;10.10;99.90
42989;DHT22;28622;43.716;20.668;2022-10-26T03:09:17;10.00;99.90
42989;DHT22;28622;43.716;20.668;2022-10-26T03:11:43;10.00;99.90
42989;DHT22;28622;43.716;20.668;2022-10-26T03:14:09;10.00;99.90
42989;DHT22;28622;43.716;20.668;2022-10-26T03:16:35;9.90;99.90
42989;DHT22;28622;43.716;20.668;2022-10-26T03:19:04;9.90;99.90
42989;DHT22;28622;43.716;20.668;2022-10-26T03:21:30;9.90;99.90
42989;DHT22;28622;43.716;20.668;2022-10-26T03:23:55;9.90;99.90
42989;DHT22;28622;43.716;20.668;2022-10-26T03:26:21;9.90;99.90
42989;DHT22;28622;43.716;20.668;2022-10-26T03:28:47;9.90;99.90
42989;DHT22;28622;43.716;20.668;2022-10-26T03:31:13;9.90;99.90
42989;DHT22;28622;43.716;20.668;2022-10-26T03:33:38;9.90;99.90
42989;DHT22;28622;43.716;20.668;2022-10-26T03:36:04;9.80;99.90
42989;DHT22;28622;43.716;20.668;2022-10-26T03:38:30;9.80;99.90
42989;DHT22;28622;43.716;20.668;2022-10-26T03:40:56;9.80;99.90
42989;DHT22;28622;43.716;20.668;2022-10-26T03:43:22;9.90;99.90
42989;DHT22;28622;43.716;20.668;2022-10-26T03:45:48;9.90;99.90
42989;DHT22;28622;43.716;20.668;2022-10-26T03:48:14;9.90;99.90
42989;DHT22;28622;43.716;20.668;2022-10-26T03:50:40;9.90;99.90
42989;DHT22;28622;43.716;20.668;2022-10-26T03:53:05;9.90;99.90
42989;DHT22;28622;43.716;20.668;2022-10-26T03:55:31;9.90;99.90
42989;DHT22;28622;43.716;20.668;2022-10-26T03:57:57;9.80;99.90
42989;DHT22;28622;43.716;20.668;2022-10-26T04:00:23;9.80;99.90
42989;DHT22;28622;43.716;20.668;2022-10-26T04:02:57;9.80;99.90
42989;DHT22;28622;43.716;20.668;2022-10-26T04:05:24;9.70;99.90
42989;DHT22;28622;43.716;20.668;2022-10-26T04:07:55;9.70;99.90
42989;DHT22;28622;43.716;20.668;2022-10-26T04:10:22;9.70;99.90
42989;DHT22;28622;43.716;20.668;2022-10-26T04:12:48;9.80;99.90
42989;DHT22;28622;43.716;20.668;2022-10-26T04:15:14;9.80;99.90
42989;DHT22;28622;43.716;20.668;2022-10-26T04:17:40;9.70;99.90
42989;DHT22;28622;43.716;20.668;2022-10-26T04:20:07;9.70;99.90
42989;DHT22;28622;43.716;20.668;2022-10-26T04:22:33;9.60;99.90
42989;DHT22;28622;43.716;20.668;2022-10-26T04:24:59;9.60;99.90
42989;DHT22;28622;43.716;20.668;2022-10-26T04:27:25;9.60;99.90
42989;DHT22;28622;43.716;20.668;2022-10-26T04:29:51;9.50;99.90
42989;DHT22;28622;43.716;20.668;2022-10-26T04:32:17;9.50;99.90
42989;DHT22;28622;43.716;20.668;2022-10-26T04:34:42;9.50;99.90
42989;DHT22;28622;43.716;20.668;2022-10-26T04:37:08;9.40;99.90
42989;DHT22;28622;43.716;20.668;2022-10-26T04:39:34;9.40;99.90
42989;DHT22;28622;43.716;20.668;2022-10-26T04:42:00;9.40;99.90
42989;DHT22;28622;43.716;20.668;2022-10-26T04:44:27;9.40;99.90
42989;DHT22;28622;43.716;20.668;2022-10-26T04:46:53;9.40;99.90
42989;DHT22;28622;43.716;20.668;2022-10-26T04:49:19;9.40;99.90
42989;DHT22;28622;43.716;20.668;2022-10-26T04:51:45;9.40;99.90
42989;DHT22;28622;43.716;20.668;2022-10-26T04:54:10;9.50;99.90
42989;DHT22;28622;43.716;20.668;2022-10-26T04:56:36;9.50;99.90
42989;DHT22;28622;43.716;20.668;2022-10-26T04:59:02;9.40;99.90
42989;DHT22;28622;43.716;20.668;2022-10-26T05:01:30;9.40;99.90
42989;DHT22;28622;43.716;20.668;2022-10-26T05:03:56;9.40;99.90
42989;DHT22;28622;43.716;20.668;2022-10-26T05:06:22;9.50;99.90
42989;DHT22;28622;43.716;20.668;2022-10-26T05:08:48;9.40;99.90
42989;DHT22;28622;43.716;20.668;2022-10-26T05:11:14;9.50;99.90
42989;DHT22;28622;43.716;20.668;2022-10-26T05:13:40;9.60;99.90
42989;DHT22;28622;43.716;20.668;2022-10-26T05:16:06;9.60;99.90
42989;DHT22;28622;43.716;20.668;2022-10-26T05:18:32;9.70;99.90
42989;DHT22;28622;43.716;20.668;2022-10-26T05:20:58;9.60;99.90
42989;DHT22;28622;43.716;20.668;2022-10-26T05:23:24;9.70;99.90
42989;DHT22;28622;43.716;20.668;2022-10-26T05:25:50;9.70;99.90
42989;DHT22;28622;43.716;20.668;2022-10-26T05:28:16;9.70;99.90
42989;DHT22;28622;43.716;20.668;2022-10-26T05:30:44;9.70;99.90
42989;DHT22;28622;43.716;20.668;2022-10-26T05:33:12;9.70;99.90
42989;DHT22;28622;43.716;20.668;2022-10-26T05:35:38;9.70;99.90
42989;DHT22;28622;43.716;20.668;2022-10-26T05:38:15;9.70;99.90
42989;DHT22;28622;43.716;20.668;2022-10-26T05:40:48;9.70;99.90
42989;DHT22;28622;43.716;20.668;2022-10-26T05:43:14;9.70;99.90
42989;DHT22;28622;43.716;20.668;2022-10-26T05:45:40;9.80;99.90
42989;DHT22;28622;43.716;20.668;2022-10-26T05:48:06;9.80;99.90
42989;DHT22;28622;43.716;20.668;2022-10-26T05:50:32;9.90;99.90
42989;DHT22;28622;43.716;20.668;2022-10-26T05:52:58;9.90;99.90
42989;DHT22;28622;43.716;20.668;2022-10-26T05:55:24;9.90;99.90
42989;DHT22;28622;43.716;20.668;2022-10-26T05:57:50;9.90;99.90
42989;DHT22;28622;43.716;20.668;2022-10-26T06:00:24;9.80;99.90
42989;DHT22;28622;43.716;20.668;2022-10-26T06:06:01;9.80;99.90
42989;DHT22;28622;43.716;20.668;2022-10-26T06:08:27;9.90;99.90
42989;DHT22;28622;43.716;20.668;2022-10-26T06:10:55;11.00;99.90
42989;DHT22;28622;43.716;20.668;2022-10-26T06:13:21;10.00;99.90
42989;DHT22;28622;43.716;20.668;2022-10-26T06:16:10;10.00;99.90
42989;DHT22;28622;43.716;20.668;2022-10-26T06:29:31;10.20;99.90
42989;DHT22;28622;43.716;20.668;2022-10-26T06:32:01;10.40;99.90
42989;DHT22;28622;43.716;20.668;2022-10-26T06:34:32;10.60;99.90
42989;DHT22;28622;43.716;20.668;2022-10-26T06:37:00;10.60;99.90
42989;DHT22;28622;43.716;20.668;2022-10-26T06:39:29;10.60;99.90
42989;DHT22;28622;43.716;20.668;2022-10-26T06:41:56;10.70;99.90
42989;DHT22;28622;43.716;20.668;2022-10-26T06:44:23;10.70;99.90
42989;DHT22;28622;43.716;20.668;2022-10-26T06:47:26;10.80;99.90
42989;DHT22;28622;43.716;20.668;2022-10-26T06:50:32;10.90;99.90
42989;DHT22;28622;43.716;20.668;2022-10-26T06:55:42;11.10;99.90
42989;DHT22;28622;43.716;20.668;2022-10-26T06:58:19;11.20;99.90
42989;DHT22;28622;43.716;20.668;2022-10-26T07:00:47;11.50;99.90
42989;DHT22;28622;43.716;20.668;2022-10-26T07:03:14;11.60;99.90
42989;DHT22;28622;43.716;20.668;2022-10-26T07:05:40;11.50;99.90
42989;DHT22;28622;43.716;20.668;2022-10-26T07:08:06;11.50;99.90
42989;DHT22;28622;43.716;20.668;2022-10-26T07:10:31;11.50;99.90
42989;DHT22;28622;43.716;20.668;2022-10-26T07:12:59;11.50;99.90
42989;DHT22;28622;43.716;20.668;2022-10-26T07:15:25;11.50;99.90
42989;DHT22;28622;43.716;20.668;2022-10-26T07:17:51;11.60;99.90
42989;DHT22;28622;43.716;20.668;2022-10-26T07:20:20;11.60;99.90
42989;DHT22;28622;43.716;20.668;2022-10-26T07:22:55;11.70;99.90
42989;DHT22;28622;43.716;20.668;2022-10-26T07:25:22;11.70;99.90
42989;DHT22;28622;43.716;20.668;2022-10-26T07:27:48;11.80;99.90
42989;DHT22;28622;43.716;20.668;2022-10-26T07:30:14;11.90;99.90
42989;DHT22;28622;43.716;20.668;2022-10-26T07:32:40;12.10;99.90
42989;DHT22;28622;43.716;20.668;2022-10-26T07:35:05;12.20;99.90
42989;DHT22;28622;43.716;20.668;2022-10-26T07:37:31;12.20;99.90
42989;DHT22;28622;43.716;20.668;2022-10-26T07:39:58;12.30;99.90
42989;DHT22;28622;43.716;20.668;2022-10-26T07:42:23;12.40;99.90
42989;DHT22;28622;43.716;20.668;2022-10-26T07:44:49;12.60;99.90
42989;DHT22;28622;43.716;20.668;2022-10-26T07:47:15;12.90;99.90
42989;DHT22;28622;43.716;20.668;2022-10-26T07:49:41;13.00;99.90
42989;DHT22;28622;43.716;20.668;2022-10-26T07:52:07;13.00;99.90
42989;DHT22;28622;43.716;20.668;2022-10-26T07:56:59;14.10;99.90
42989;DHT22;28622;43.716;20.668;2022-10-26T07:59:25;14.60;99.90
42989;DHT22;28622;43.716;20.668;2022-10-26T08:01:52;15.00;99.90
42989;DHT22;28622;43.716;20.668;2022-10-26T08:04:17;15.60;99.90
42989;DHT22;28622;43.716;20.668;2022-10-26T08:06:43;16.20;99.90
42989;DHT22;28622;43.716;20.668;2022-10-26T08:09:09;16.50;99.90
42989;DHT22;28622;43.716;20.668;2022-10-26T08:11:35;16.70;99.90
42989;DHT22;28622;43.716;20.668;2022-10-26T08:14:02;17.00;99.90
42989;DHT22;28622;43.716;20.668;2022-10-26T08:16:28;17.20;99.90
42989;DHT22;28622;43.716;20.668;2022-10-26T08:18:54;17.30;99.90
42989;DHT22;28622;43.716;20.668;2022-10-26T08:21:20;17.50;99.90
42989;DHT22;28622;43.716;20.668;2022-10-26T08:23:45;17.80;99.90
42989;DHT22;28622;43.716;20.668;2022-10-26T08:26:11;18.10;99.90
42989;DHT22;28622;43.716;20.668;2022-10-26T08:28:38;17.80;99.90
42989;DHT22;28622;43.716;20.668;2022-10-26T08:31:04;18.10;99.90
42989;DHT22;28622;43.716;20.668;2022-10-26T08:33:30;18.10;99.90
42989;DHT22;28622;43.716;20.668;2022-10-26T08:35:58;18.20;99.90
42989;DHT22;28622;43.716;20.668;2022-10-26T08:38:25;18.60;99.90
42989;DHT22;28622;43.716;20.668;2022-10-26T08:40:51;19.00;99.90
42989;DHT22;28622;43.716;20.668;2022-10-26T08:43:54;19.20;99.90
42989;DHT22;28622;43.716;20.668;2022-10-26T08:46:29;19.20;99.90
42989;DHT22;28622;43.716;20.668;2022-10-26T08:49:04;19.30;99.90
42989;DHT22;28622;43.716;20.668;2022-10-26T08:51:35;19.50;99.90
42989;DHT22;28622;43.716;20.668;2022-10-26T08:54:37;19.70;99.90
42989;DHT22;28622;43.716;20.668;2022-10-26T09:02:26;20.20;99.90
42989;DHT22;28622;43.716;20.668;2022-10-26T09:04:53;20.50;99.90
42989;DHT22;28622;43.716;20.668;2022-10-26T09:18:45;21.20;99.90
42989;DHT22;28622;43.716;20.668;2022-10-26T09:21:36;21.50;98.50
42989;DHT22;28622;43.716;20.668;2022-10-26T09:24:24;21.70;98.90
42989;DHT22;28622;43.716;20.668;2022-10-26T09:27:26;21.70;98.40
42989;DHT22;28622;43.716;20.668;2022-10-26T09:32:33;22.00;96.00
42989;DHT22;28622;43.716;20.668;2022-10-26T09:37:47;22.20;97.10
42989;DHT22;28622;43.716;20.668;2022-10-26T09:40:30;22.10;96.30
42989;DHT22;28622;43.716;20.668;2022-10-26T09:43:20;22.40;96.80
42989;DHT22;28622;43.716;20.668;2022-10-26T09:45:50;22.50;96.10
42989;DHT22;28622;43.716;20.668;2022-10-26T09:48:35;22.70;95.90
42989;DHT22;28622;43.716;20.668;2022-10-26T09:51:04;22.80;95.30
42989;DHT22;28622;43.716;20.668;2022-10-26T09:53:31;22.50;95.10
42989;DHT22;28622;43.716;20.668;2022-10-26T09:56:05;22.60;96.30
42989;DHT22;28622;43.716;20.668;2022-10-26T09:58:49;22.50;95.30
42989;DHT22;28622;43.716;20.668;2022-10-26T10:01:34;22.80;94.50
42989;DHT22;28622;43.716;20.668;2022-10-26T10:06:35;22.90;94.50
42989;DHT22;28622;43.716;20.668;2022-10-26T10:09:11;23.00;94.00
42989;DHT22;28622;43.716;20.668;2022-10-26T10:11:58;23.30;94.30
42989;DHT22;28622;43.716;20.668;2022-10-26T10:14:36;23.50;93.10
42989;DHT22;28622;43.716;20.668;2022-10-26T10:17:06;23.50;93.20
42989;DHT22;28622;43.716;20.668;2022-10-26T10:19:37;23.40;91.90
42989;DHT22;28622;43.716;20.668;2022-10-26T10:22:23;23.50;92.60
42989;DHT22;28622;43.716;20.668;2022-10-26T10:24:58;23.80;93.20
42989;DHT22;28622;43.716;20.668;2022-10-26T10:27:24;23.80;92.80
42989;DHT22;28622;43.716;20.668;2022-10-26T10:30:14;23.70;91.40
42989;DHT22;28622;43.716;20.668;2022-10-26T10:32:44;23.80;92.00
42989;DHT22;28622;43.716;20.668;2022-10-26T10:35:27;23.90;90.80
42989;DHT22;28622;43.716;20.668;2022-10-26T10:37:53;24.30;90.50
42989;DHT22;28622;43.716;20.668;2022-10-26T10:40:24;24.40;90.20
42989;DHT22;28622;43.716;20.668;2022-10-26T10:43:00;24.30;89.40
42989;DHT22;28622;43.716;20.668;2022-10-26T10:45:29;24.50;91.00
42989;DHT22;28622;43.716;20.668;2022-10-26T10:50:28;24.80;89.60
42989;DHT22;28622;43.716;20.668;2022-10-26T10:55:38;24.00;89.80
42989;DHT22;28622;43.716;20.668;2022-10-26T11:01:12;23.90;90.40
42989;DHT22;28622;43.716;20.668;2022-10-26T11:03:52;24.10;87.60
42989;DHT22;28622;43.716;20.668;2022-10-26T11:06:25;24.30;86.80
42989;DHT22;28622;43.716;20.668;2022-10-26T11:11:35;24.40;88.10
42989;DHT22;28622;43.716;20.668;2022-10-26T11:16:54;24.60;84.60
42989;DHT22;28622;43.716;20.668;2022-10-26T11:22:13;24.20;83.60
42989;DHT22;28622;43.716;20.668;2022-10-26T11:24:48;24.10;84.40
42989;DHT22;28622;43.716;20.668;2022-10-26T11:27:38;24.70;86.20
42989;DHT22;28622;43.716;20.668;2022-10-26T11:30:24;24.80;82.20
42989;DHT22;28622;43.716;20.668;2022-10-26T11:35:29;25.10;79.70
42989;DHT22;28622;43.716;20.668;2022-10-26T11:38:12;25.20;78.80
42989;DHT22;28622;43.716;20.668;2022-10-26T11:46:20;25.80;78.70
42989;DHT22;28622;43.716;20.668;2022-10-26T11:49:09;25.80;79.00
42989;DHT22;28622;43.716;20.668;2022-10-26T11:54:27;25.80;79.80
42989;DHT22;28622;43.716;20.668;2022-10-26T11:56:56;26.10;80.10
42989;DHT22;28622;43.716;20.668;2022-10-26T11:59:27;26.20;78.90
42989;DHT22;28622;43.716;20.668;2022-10-26T12:02:14;26.40;77.90
42989;DHT22;28622;43.716;20.668;2022-10-26T12:04:47;26.60;79.20
42989;DHT22;28622;43.716;20.668;2022-10-26T12:07:26;26.40;77.20
42989;DHT22;28622;43.716;20.668;2022-10-26T12:09:54;26.20;77.00
42989;DHT22;28622;43.716;20.668;2022-10-26T12:14:58;26.40;78.30
42989;DHT22;28622;43.716;20.668;2022-10-26T12:17:32;26.30;78.60
42989;DHT22;28622;43.716;20.668;2022-10-26T12:20:56;26.40;78.30
42989;DHT22;28622;43.716;20.668;2022-10-26T12:22:56;26.40;79.00
42989;DHT22;28622;43.716;20.668;2022-10-26T12:25:22;26.30;78.00
42989;DHT22;28622;43.716;20.668;2022-10-26T12:27:51;26.40;78.90
42989;DHT22;28622;43.716;20.668;2022-10-26T12:35:33;26.60;77.20
42989;DHT22;28622;43.716;20.668;2022-10-26T12:38:01;26.60;76.90
42989;DHT22;28622;43.716;20.668;2022-10-26T12:40:46;26.50;77.40
42989;DHT22;28622;43.716;20.668;2022-10-26T12:45:42;26.50;77.00
42989;DHT22;28622;43.716;20.668;2022-10-26T12:48:39;26.60;76.80
42989;DHT22;28622;43.716;20.668;2022-10-26T12:51:40;26.40;76.50
42989;DHT22;28622;43.716;20.668;2022-10-26T12:54:33;26.60;76.70
42989;DHT22;28622;43.716;20.668;2022-10-26T12:57:19;26.60;76.50
42989;DHT22;28622;43.716;20.668;2022-10-26T13:00:00;26.50;76.60
42989;DHT22;28622;43.716;20.668;2022-10-26T13:02:39;26.40;76.80
42989;DHT22;28622;43.716;20.668;2022-10-26T13:07:44;26.30;77.20
42989;DHT22;28622;43.716;20.668;2022-10-26T13:18:08;26.30;76.90
42989;DHT22;28622;43.716;20.668;2022-10-26T13:20:36;26.30;76.70
42989;DHT22;28622;43.716;20.668;2022-10-26T13:23:23;26.20;76.80
42989;DHT22;28622;43.716;20.668;2022-10-26T13:26:18;25.90;76.70
42989;DHT22;28622;43.716;20.668;2022-10-26T13:28:55;26.00;78.20
42989;DHT22;28622;43.716;20.668;2022-10-26T13:33:57;26.00;76.60
42989;DHT22;28622;43.716;20.668;2022-10-26T13:39:16;25.50;75.80
42989;DHT22;28622;43.716;20.668;2022-10-26T13:41:46;25.40;76.80
42989;DHT22;28622;43.716;20.668;2022-10-26T13:44:22;25.40;77.10
42989;DHT22;28622;43.716;20.668;2022-10-26T13:46:55;25.40;78.30
42989;DHT22;28622;43.716;20.668;2022-10-26T13:49:28;25.20;77.80
42989;DHT22;28622;43.716;20.668;2022-10-26T13:51:55;25.30;77.70
42989;DHT22;28622;43.716;20.668;2022-10-26T13:54:41;25.10;77.70
42989;DHT22;28622;43.716;20.668;2022-10-26T13:57:32;25.00;76.80
42989;DHT22;28622;43.716;20.668;2022-10-26T14:00:08;25.00;75.00
42989;DHT22;28622;43.716;20.668;2022-10-26T14:02:42;24.90;73.60
42989;DHT22;28622;43.716;20.668;2022-10-26T14:05:11;24.80;73.20
42989;DHT22;28622;43.716;20.668;2022-10-26T14:07:55;24.60;74.70
42989;DHT22;28622;43.716;20.668;2022-10-26T14:12:54;24.20;75.30
42989;DHT22;28622;43.716;20.668;2022-10-26T14:15:28;24.20;75.20
42989;DHT22;28622;43.716;20.668;2022-10-26T14:17:56;24.00;75.20
42989;DHT22;28622;43.716;20.668;2022-10-26T14:20:23;23.80;75.70
42989;DHT22;28622;43.716;20.668;2022-10-26T14:22:51;23.60;77.50
42989;DHT22;28622;43.716;20.668;2022-10-26T14:25:23;23.40;74.50
42989;DHT22;28622;43.716;20.668;2022-10-26T14:27:49;23.10;73.60
42989;DHT22;28622;43.716;20.668;2022-10-26T14:30:30;23.00;74.00
42989;DHT22;28622;43.716;20.668;2022-10-26T14:32:58;22.80;74.40
42989;DHT22;28622;43.716;20.668;2022-10-26T14:35:31;22.70;76.00
42989;DHT22;28622;43.716;20.668;2022-10-26T14:38:05;22.60;77.20
42989;DHT22;28622;43.716;20.668;2022-10-26T14:40:34;22.50;78.00
42989;DHT22;28622;43.716;20.668;2022-10-26T14:43:02;22.40;78.80
42989;DHT22;28622;43.716;20.668;2022-10-26T14:45:37;22.30;79.70
42989;DHT22;28622;43.716;20.668;2022-10-26T14:48:05;22.20;80.00
42989;DHT22;28622;43.716;20.668;2022-10-26T14:50:40;22.10;80.00
42989;DHT22;28622;43.716;20.668;2022-10-26T14:53:15;22.10;80.10
42989;DHT22;28622;43.716;20.668;2022-10-26T14:55:51;22.00;80.40
42989;DHT22;28622;43.716;20.668;2022-10-26T14:58:28;21.90;80.80
42989;DHT22;28622;43.716;20.668;2022-10-26T15:01:33;21.80;80.60
42989;DHT22;28622;43.716;20.668;2022-10-26T15:04:41;21.60;81.40
42989;DHT22;28622;43.716;20.668;2022-10-26T15:07:21;21.50;78.60
42989;DHT22;28622;43.716;20.668;2022-10-26T15:09:50;21.40;76.70
42989;DHT22;28622;43.716;20.668;2022-10-26T15:12:39;21.30;76.20
42989;DHT22;28622;43.716;20.668;2022-10-26T15:17:55;21.10;77.00
42989;DHT22;28622;43.716;20.668;2022-10-26T15:20:26;21.00;77.70
42989;DHT22;28622;43.716;20.668;2022-10-26T15:23:01;20.80;83.70
42989;DHT22;28622;43.716;20.668;2022-10-26T15:25:48;20.50;82.60
42989;DHT22;28622;43.716;20.668;2022-10-26T15:28:28;20.30;84.60
42989;DHT22;28622;43.716;20.668;2022-10-26T15:33:37;20.00;92.00
42989;DHT22;28622;43.716;20.668;2022-10-26T15:38:39;19.50;86.90
42989;DHT22;28622;43.716;20.668;2022-10-26T15:41:27;19.50;87.40
42989;DHT22;28622;43.716;20.668;2022-10-26T15:44:08;19.50;95.90
42989;DHT22;28622;43.716;20.668;2022-10-26T15:46:38;19.30;94.70
42989;DHT22;28622;43.716;20.668;2022-10-26T15:51:33;18.80;90.20
42989;DHT22;28622;43.716;20.668;2022-10-26T15:54:03;18.70;90.60
42989;DHT22;28622;43.716;20.668;2022-10-26T15:56:32;18.60;91.40
42989;DHT22;28622;43.716;20.668;2022-10-26T15:59:26;18.50;91.60
42989;DHT22;28622;43.716;20.668;2022-10-26T16:01:53;18.20;92.20
42989;DHT22;28622;43.716;20.668;2022-10-26T16:04:18;18.00;92.70
42989;DHT22;28622;43.716;20.668;2022-10-26T16:06:44;17.80;93.40
42989;DHT22;28622;43.716;20.668;2022-10-26T16:09:16;17.80;93.10
42989;DHT22;28622;43.716;20.668;2022-10-26T16:11:43;17.70;92.90
42989;DHT22;28622;43.716;20.668;2022-10-26T16:14:10;17.70;93.10
42989;DHT22;28622;43.716;20.668;2022-10-26T16:16:37;17.70;98.60
42989;DHT22;28622;43.716;20.668;2022-10-26T16:19:03;17.50;93.50
42989;DHT22;28622;43.716;20.668;2022-10-26T16:21:29;17.30;94.10
42989;DHT22;28622;43.716;20.668;2022-10-26T16:23:55;17.20;94.20
42989;DHT22;28622;43.716;20.668;2022-10-26T16:26:22;17.10;94.30
42989;DHT22;28622;43.716;20.668;2022-10-26T16:28:49;17.00;94.50
42989;DHT22;28622;43.716;20.668;2022-10-26T16:31:17;16.90;95.40
42989;DHT22;28622;43.716;20.668;2022-10-26T16:33:43;16.70;95.70
42989;DHT22;28622;43.716;20.668;2022-10-26T16:36:10;16.60;95.50
42989;DHT22;28622;43.716;20.668;2022-10-26T16:38:37;16.50;96.60
42989;DHT22;28622;43.716;20.668;2022-10-26T16:41:11;16.30;96.50
42989;DHT22;28622;43.716;20.668;2022-10-26T16:43:39;16.30;96.80
42989;DHT22;28622;43.716;20.668;2022-10-26T16:46:08;16.20;96.90
42989;DHT22;28622;43.716;20.668;2022-10-26T16:51:08;16.00;96.90
42989;DHT22;28622;43.716;20.668;2022-10-26T16:53:34;15.90;97.70
42989;DHT22;28622;43.716;20.668;2022-10-26T16:56:05;15.80;98.10
42989;DHT22;28622;43.716;20.668;2022-10-26T16:58:31;15.70;98.00
42989;DHT22;28622;43.716;20.668;2022-10-26T17:00:57;15.60;98.10
42989;DHT22;28622;43.716;20.668;2022-10-26T17:03:23;15.70;98.10
42989;DHT22;28622;43.716;20.668;2022-10-26T17:06:00;15.50;98.00
42989;DHT22;28622;43.716;20.668;2022-10-26T17:08:27;15.40;98.50
42989;DHT22;28622;43.716;20.668;2022-10-26T17:10:57;15.40;98.70
42989;DHT22;28622;43.716;20.668;2022-10-26T17:13:26;15.40;98.60
42989;DHT22;28622;43.716;20.668;2022-10-26T17:15:52;15.50;98.10
42989;DHT22;28622;43.716;20.668;2022-10-26T17:18:18;15.40;98.10
42989;DHT22;28622;43.716;20.668;2022-10-26T17:20:50;15.50;98.00
42989;DHT22;28622;43.716;20.668;2022-10-26T17:23:17;15.40;98.30
42989;DHT22;28622;43.716;20.668;2022-10-26T17:25:43;15.40;98.40
42989;DHT22;28622;43.716;20.668;2022-10-26T17:28:09;15.40;98.30
42989;DHT22;28622;43.716;20.668;2022-10-26T17:30:34;15.40;98.80
42989;DHT22;28622;43.716;20.668;2022-10-26T17:33:01;15.30;99.20
42989;DHT22;28622;43.716;20.668;2022-10-26T17:35:27;15.30;99.50
42989;DHT22;28622;43.716;20.668;2022-10-26T17:37:53;15.20;99.80
42989;DHT22;28622;43.716;20.668;2022-10-26T17:40:19;15.10;99.90
42989;DHT22;28622;43.716;20.668;2022-10-26T17:42:45;15.10;99.90
42989;DHT22;28622;43.716;20.668;2022-10-26T17:45:11;15.10;99.90
42989;DHT22;28622;43.716;20.668;2022-10-26T17:47:37;15.10;99.90
42989;DHT22;28622;43.716;20.668;2022-10-26T17:50:03;15.00;99.90
42989;DHT22;28622;43.716;20.668;2022-10-26T17:52:29;14.90;99.90
42989;DHT22;28622;43.716;20.668;2022-10-26T17:54:55;14.90;99.90
42989;DHT22;28622;43.716;20.668;2022-10-26T17:57:22;14.90;99.90
42989;DHT22;28622;43.716;20.668;2022-10-26T17:59:47;14.80;99.90
42989;DHT22;28622;43.716;20.668;2022-10-26T18:02:14;14.80;99.90
42989;DHT22;28622;43.716;20.668;2022-10-26T18:04:40;14.80;99.90
42989;DHT22;28622;43.716;20.668;2022-10-26T18:07:06;14.70;99.90
42989;DHT22;28622;43.716;20.668;2022-10-26T18:09:32;14.60;99.90
42989;DHT22;28622;43.716;20.668;2022-10-26T18:11:58;14.60;99.90